x

Bodega Bay - 48nm Nnw Of San Francisco, Ca (46013) Wave Buoy

8:50pm - Sun 7th Feb 2016 All times are PST. -8 hours from GMT.

  • Sig Wave height 5.6ft
  • Peak Period 11s
  • Average Period 8s
  • Wind
    2mph, 4mph gusts
  • Sea Temp 56°f
  • Air Temp 55°f
  • Sea Pressure 1022.6mb
  • Bodega Bay - 48nm Nnw Of San Francisco, Ca
  • Bodega Bay - 48nm Nnw Of San Francisco, Ca

More Historic Weather Station data

Upgrade to MSW Pro to gain access to the past 30 days of data for over 8000 Wavebouys and Weather Stations around the globe.

Join Pro

Comparision Forecast

View Surf forecast
   
Sun 02/07 8:50pm 5.5ft 11s 8s 2 4 mph 1022.6mb 56f 55f
7:50pm 5.5ft 11s 9s 2 4 mph 1022.6mb 56f 55f
6:50pm 6ft 11s 9s 4 7 mph 1022.5mb 56f 55f
5:50pm 6.5ft 11s 9s  -  2 mph 1022.2mb 56f 56f
4:50pm 5.5ft 11s 9s  -  2 mph 1022.1mb 57f 57f
3:50pm 5ft 11s 8s 7
mph
1021.8mb 58f 57f
2:50pm 5ft 12s 8s 4 7 mph 1021.7mb 58f 57f
1:50pm 5ft 12s 8s 2 4 mph 1022.1mb 58f 56f
12:50pm 5.5ft 12s 8s 2 4 mph 1023mb 57f 56f
11:50am 6ft 13s 8s  -  2 mph 1024mb 56f 56f
10:50am 5ft 13s 7s 2 4 mph 1024.6mb 55f 55f
9:50am 5ft 12s 8s  -  2 mph 1024.9mb 55f 56f
8:50am 5.5ft 13s 8s 2 4 mph 1024.9mb 55f 55f
7:50am 7ft 13s 9s  -  2 mph 1024.9mb 55f 54f
6:50am 7ft 13s 8s 2 4 mph 1024.7mb 55f 54f
5:50am 7ft 14s 8s 2 4 mph 1024.6mb 55f 54f
4:50am 7ft 13s 8s 2 4 mph 1024.9mb 55f 54f
3:50am 7.5ft 13s 8s 7
mph
1025.1mb 55f 55f
2:50am 8ft 13s 8s 11 13 mph 1025.5mb 55f 55f
1:50am 8ft 11s 8s 9 11 mph 1026.1mb 55f 55f
12:50am 8ft 11s 8s 13 18 mph 1025.8mb 55f 56f
Sat 02/06 11:50pm 8ft 12s 8s 16 18 mph 1026mb 55f 56f
10:50pm 8ft 11s 8s 16 20 mph 1026.4mb 55f 56f
9:50pm 7ft 12s 8s 18 20 mph 1026.7mb 55f 57f
8:50pm 7ft 12s 8s 18 22 mph 1026.6mb 55f 57f
7:50pm 6ft 13s 9s 18 20 mph 1026.6mb 55f 56f
6:50pm 5.5ft 13s 9s 16 18 mph 1026.9mb 55f 55f
5:50pm 5.5ft 13s 9s 7 9 mph 1026.9mb 56f 55f
4:50pm 6.5ft 13s 10s 7 9 mph 1027mb 55f 55f
3:50pm 6.5ft 14s 10s 7 9 mph 1027.3mb 56f 55f
2:50pm 7.5ft 14s 10s 4 7 mph 1027.5mb 56f 54f
1:50pm 6.5ft 14s 10s 9 11 mph 1028.3mb 56f 54f
12:50pm 7.5ft 14s 10s 2 4 mph 1028.8mb 55f 55f
11:50am 8ft 14s 10s 4 7 mph 1030mb 55f 53f
10:50am 8ft 14s 10s 9 11 mph 1030.4mb 55f 53f
9:50am 9.5ft 13s 11s 9 11 mph 1030.2mb 55f 52f
8:50am 9.5ft 14s 11s 4 7 mph 1029.8mb 54f 55f
7:50am 9ft 14s 10s 4 7 mph 1029.7mb 54f 54f
6:50am 9ft 12s 11s 7 9 mph 1029.8mb 54f 54f
5:50am 11ft 14s 11s 7 11 mph 1029.6mb 54f 53f
4:50am 10ft 14s 11s 7 9 mph 1029.5mb 54f 53f
3:50am 9.5ft 13s 11s 9 11 mph 1029.2mb 54f 54f
2:50am 8ft 14s 10s 9 13 mph 1029.3mb 54f 53f
1:50am 8.5ft 13s 11s 7 11 mph 1029.3mb 54f 53f
12:50am 8ft 14s 11s 13 16 mph 1028.4mb 55f 53f
Fri 02/05 11:50pm 8ft 14s 11s 7
mph
1029.4mb 55f 54f
10:50pm 8ft 14s 11s 11 13 mph 1029.9mb 55f 55f
9:50pm 8ft 15s 11s 11 13 mph 1030.1mb 55f 55f
8:50pm 8ft 15s 11s 11 13 mph 1029.7mb 55f 55f
7:50pm 7.5ft 15s 10s 9 11 mph 1029.3mb 55f 54f
6:50pm 8ft 15s 10s 11 13 mph 1029.3mb 55f 54f
5:50pm 8ft 15s 11s 13 16 mph 1029mb 55f 55f
4:50pm 8ft 15s 10s 7
mph
1028.3mb 55f 54f
3:50pm 8ft 15s 11s 7
mph
1028.5mb 55f 55f
2:50pm 9.5ft 15s 11s 4
mph
1028.8mb 55f 56f
1:50pm 10ft 15s 11s 2 4 mph 1029.2mb 55f 55f
12:50pm 9.5ft 14s 11s 7 11 mph 1029.8mb 55f 54f
11:50am 12ft 16s 11s 11 16 mph 1030.5mb 55f 53f
10:50am 10.5ft 15s 11s 11 16 mph 1030.6mb 54f 53f
9:50am 10.5ft 14s 11s 11 16 mph 1029.8mb 54f 51f
8:50am 11ft 15s 11s 11 16 mph 1029.5mb 54f 51f
7:50am 11ft 15s 11s 13 18 mph 1028.9mb 54f 52f
6:50am 11ft 14s 12s 9 13 mph 1029.3mb 54f 50f
5:50am 10ft 13s 11s 9 13 mph 1029.1mb 54f 51f
4:50am 10.5ft 16s 11s 7 11 mph 1029.1mb 54f 52f
3:50am 12ft 16s 12s 7 9 mph 1029.3mb 54f 52f
2:50am 13ft 15s 13s 4 9 mph 1029.4mb 54f 52f
1:50am 10.5ft 16s 12s 9 11 mph 1028.6mb 54f 52f
12:50am 10.5ft 16s 11s 9 11 mph 1028.3mb 54f 53f
Thu 02/04 11:50pm 11ft 17s 12s 4 9 mph 1028.6mb 54f 53f
10:50pm 11.5ft 16s 12s 4 7 mph 1028.7mb 54f 53f
9:50pm 12ft 17s 12s 7 9 mph 1028.6mb 54f 54f
8:50pm 11.5ft 17s 12s 9 11 mph 1028.8mb 55f 54f
7:50pm 13ft 17s 13s 9 11 mph 1028.7mb 55f 54f
6:50pm 11ft 16s 12s 11 13 mph 1028.6mb 55f 54f
5:50pm 12.5ft 17s 12s 9 11 mph 1028.6mb 55f 54f
4:50pm 13ft 17s 13s 7 9 mph 1028.6mb 55f 54f
3:50pm 15ft 17s 13s 4 9 mph 1028.7mb 56f 55f
2:50pm 13ft 17s 12s 2 4 mph 1028.6mb 55f 56f
1:50pm 12.5ft 16s 13s 2 7 mph 1028.8mb 55f 55f
12:50pm 16.5ft 17s 14s 7 11 mph 1029.9mb 55f 54f
11:50am 15ft 17s 14s 9 13 mph 1030.4mb 55f 53f
10:50am 13.5ft 17s 13s 13 18 mph 1030.9mb 54f 52f
9:50am 13.5ft 19s 13s 13 20 mph 1030.5mb 54f 51f
8:50am 16.5ft 17s 13s 18 22 mph 1030.3mb 54f 51f
7:50am 12ft 19s 11s 18 25 mph 1030mb 54f 52f
6:50am 12.5ft 19s 12s 18 22 mph 1029.8mb 54f 52f